Time;durP1;ratioP1;P1;durP2;ratioP2;P2;SDS_P1;SDS_P2;PMS_P1;PMS_P2;Temp;Humidity;BMP_temperature;BMP_pressure;BME280_temperature;BME280_humidity;BME280_pressure;Samples;Min_cycle;Max_cycle;Signal;HPM_P1;HPM_P2
2023/01/25 00:02:20;;;;;;;47.73;15.60;;;0.80;99.90;;;;;;5055154;28;20172;-55
2023/01/25 00:04:46;;;;;;;29.80;14.87;;;0.80;99.90;;;;;;5073340;28;20214;-55
2023/01/25 00:07:11;;;;;;;31.93;13.93;;;0.90;99.90;;;;;;5073414;28;20228;-56
2023/01/25 00:09:37;;;;;;;31.53;14.33;;;0.90;99.90;;;;;;5073201;28;20533;-56
2023/01/25 00:12:03;;;;;;;26.10;12.67;;;1.60;99.90;;;;;;5073192;28;20275;-56
2023/01/25 00:14:29;;;;;;;30.50;13.00;;;0.90;99.90;;;;;;5055311;28;20175;-56
2023/01/25 00:16:54;;;;;;;41.97;14.00;;;1.00;99.90;;;;;;5073053;28;20168;-56
2023/01/25 00:19:20;;;;;;;39.63;14.00;;;1.00;99.90;;;;;;5073080;28;20177;-56
2023/01/25 00:21:46;;;;;;;37.67;13.97;;;0.80;99.90;;;;;;5073062;28;20577;-55
2023/01/25 00:24:13;;;;;;;47.47;14.67;;;0.90;99.90;;;;;;5070793;28;21219;-56
2023/01/25 00:26:39;;;;;;;34.20;14.30;;;0.80;99.90;;;;;;5054327;28;20176;-57
2023/01/25 00:29:05;;;;;;;38.40;15.20;;;0.90;99.90;;;;;;5071158;28;20671;-56
2023/01/25 00:31:33;;;;;;;55.00;15.33;;;1.00;99.90;;;;;;5072673;28;20623;-56
2023/01/25 00:34:24;;;;;;;45.13;14.10;;;0.90;99.90;;;;;;5086049;28;20230;-56
2023/01/25 00:36:54;;;;;;;56.80;14.63;;;0.90;99.90;;;;;;5058234;28;20169;-56
2023/01/25 00:39:19;;;;;;;60.20;14.80;;;1.40;99.90;;;;;;5072363;28;20197;-56
2023/01/25 00:41:45;;;;;;;50.40;16.63;;;1.00;99.90;;;;;;5073741;28;20212;-56
2023/01/25 00:44:11;;;;;;;65.27;18.80;;;;;;;;;;5080777;28;20195;-56
2023/01/25 00:46:37;;;;;;;49.93;18.03;;;0.80;99.90;;;;;;5073461;28;20234;-56
2023/01/25 00:49:02;;;;;;;51.43;17.97;;;3.50;99.90;;;;;;5072280;28;20176;-56
2023/01/25 00:51:28;;;;;;;57.40;22.20;;;1.00;99.90;;;;;;5072481;28;20168;-56
2023/01/25 00:53:54;;;;;;;70.97;23.90;;;0.90;99.90;;;;;;5082981;28;20218;-56
2023/01/25 00:56:19;;;;;;;71.43;23.90;;;1.00;99.90;;;;;;5084906;28;20657;-56
2023/01/25 00:58:45;;;;;;;74.87;23.33;;;1.00;99.90;;;;;;5081556;28;20174;-56
2023/01/25 01:01:11;;;;;;;87.30;22.97;;;1.00;99.90;;;;;;5082696;28;20243;-56
2023/01/25 01:03:37;;;;;;;70.50;21.57;;;1.20;99.90;;;;;;5085427;28;20676;-56
2023/01/25 01:06:05;;;;;;;70.77;22.73;;;0.80;99.90;;;;;;5076195;28;20268;-56
2023/01/25 01:08:38;;;;;;;72.63;21.90;;;0.80;99.90;;;;;;5075154;28;20299;-55
2023/01/25 01:11:07;;;;;;;79.30;23.23;;;0.90;99.90;;;;;;5051926;28;20223;-56
2023/01/25 01:13:33;;;;;;;74.83;22.47;;;0.80;99.90;;;;;;5063792;28;20690;-55
2023/01/25 01:16:01;;;;;;;88.27;23.20;;;0.80;99.90;;;;;;5057120;28;20184;-54
2023/01/25 01:18:28;;;;;;;69.43;22.77;;;1.10;99.90;;;;;;5083228;28;20237;-55
2023/01/25 01:20:54;;;;;;;69.47;23.90;;;0.90;99.90;;;;;;5071712;28;20228;-55
2023/01/25 01:23:20;;;;;;;99.77;22.03;;;0.90;99.90;;;;;;5071721;28;20203;-56
2023/01/25 01:25:46;;;;;;;77.47;22.30;;;0.90;99.90;;;;;;5071745;28;20647;-56
2023/01/25 01:28:12;;;;;;;77.23;22.53;;;1.30;99.90;;;;;;5070584;28;20177;-56
2023/01/25 01:30:38;;;;;;;110.57;22.77;;;0.90;99.90;;;;;;5071545;28;20168;-55
2023/01/25 01:33:05;;;;;;;93.30;22.27;;;1.00;99.90;;;;;;5071312;28;20215;-55
2023/01/25 01:35:31;;;;;;;76.50;21.27;;;0.90;99.90;;;;;;5066718;28;20193;-56
2023/01/25 01:37:57;;;;;;;102.50;22.47;;;0.90;99.90;;;;;;5070277;28;20164;-57
2023/01/25 01:40:23;;;;;;;75.67;22.23;;;0.70;99.90;;;;;;5070106;28;20658;-56
2023/01/25 01:43:20;;;;;;;125.80;19.83;;;-0.40;99.90;;;;;;5071509;28;20168;-55
2023/01/25 01:45:48;;;;;;;89.17;19.53;;;1.00;99.90;;;;;;5054799;28;20199;-55
2023/01/25 01:48:29;;;;;;;119.00;19.27;;;0.90;99.90;;;;;;5071278;28;20187;-55
2023/01/25 01:50:59;;;;;;;140.00;19.57;;;0.90;99.90;;;;;;5071726;28;20199;-55
2023/01/25 01:53:25;;;;;;;77.20;18.70;;;0.90;99.90;;;;;;5052940;28;20694;-56
2023/01/25 01:55:54;;;;;;;119.13;20.07;;;1.00;99.90;;;;;;5088375;28;20176;-56
2023/01/25 01:58:21;;;;;;;84.80;18.67;;;1.10;99.90;;;;;;5091200;28;20668;-55
2023/01/25 02:00:47;;;;;;;77.43;17.63;;;1.00;99.90;;;;;;5080023;28;20322;-56
2023/01/25 02:03:15;;;;;;;110.87;17.47;;;0.90;99.90;;;;;;5069598;28;20686;-55
2023/01/25 02:05:53;;;;;;;125.70;18.50;;;0.70;99.90;;;;;;5060753;28;20651;-55
2023/01/25 02:08:19;;;;;;;85.03;17.10;;;0.90;99.90;;;;;;5076497;28;20684;-55
2023/01/25 02:10:47;;;;;;;84.13;17.77;;;0.90;99.90;;;;;;5070851;28;20164;-57
2023/01/25 02:13:12;;;;;;;95.67;17.30;;;0.90;99.90;;;;;;5068441;28;20597;-56
2023/01/25 02:15:42;;;;;;;99.30;18.60;;;1.00;99.90;;;;;;5082151;28;20167;-56
2023/01/25 02:18:10;;;;;;;92.20;17.47;;;1.40;99.90;;;;;;5087192;28;20168;-56
2023/01/25 02:20:44;;;;;;;97.37;18.40;;;1.00;99.90;;;;;;5070555;28;20262;-55
2023/01/25 02:23:39;;;;;;;83.20;17.30;;;1.00;99.90;;;;;;5070510;28;20195;-55
2023/01/25 02:26:06;;;;;;;113.60;18.70;;;1.10;99.90;;;;;;5050592;28;20192;-56
2023/01/25 02:28:37;;;;;;;83.87;18.13;;;1.30;99.90;;;;;;5049746;28;20177;-55
2023/01/25 02:31:03;;;;;;;97.27;17.80;;;1.10;99.90;;;;;;5049881;28;20230;-55
2023/01/25 02:33:29;;;;;;;91.17;17.77;;;1.10;99.90;;;;;;5050142;28;20240;-55
2023/01/25 02:36:06;;;;;;;89.80;18.23;;;1.10;99.90;;;;;;5052625;28;20172;-55
2023/01/25 02:38:40;;;;;;;73.63;17.80;;;1.10;99.90;;;;;;5069346;28;20325;-56
2023/01/25 02:41:20;;;;;;;98.20;17.00;;;1.10;99.90;;;;;;5069034;28;20210;-55
2023/01/25 02:43:45;;;;;;;86.47;18.20;;;1.10;99.90;;;;;;5069836;28;20658;-56
2023/01/25 02:46:19;;;;;;;66.40;17.47;;;1.10;99.90;;;;;;5070585;28;20176;-56
2023/01/25 02:48:45;;;;;;;97.13;17.77;;;1.20;99.90;;;;;;5070584;28;20179;-56
2023/01/25 02:51:11;;;;;;;80.87;16.43;;;1.10;99.90;;;;;;5070560;28;20176;-56
2023/01/25 02:53:37;;;;;;;64.93;17.13;;;1.10;99.90;;;;;;5070502;28;20216;-56
2023/01/25 02:56:03;;;;;;;54.90;16.63;;;1.10;99.90;;;;;;5070064;28;20226;-56
2023/01/25 02:58:28;;;;;;;57.27;16.03;;;1.20;99.90;;;;;;5070147;28;20185;-56
2023/01/25 03:00:55;;;;;;;65.00;15.37;;;1.20;99.90;;;;;;5070918;28;20184;-56
2023/01/25 03:03:20;;;;;;;71.47;16.07;;;1.20;99.90;;;;;;5073999;28;20176;-56
2023/01/25 03:05:46;;;;;;;58.33;14.33;;;1.10;99.90;;;;;;5076902;28;20609;-56
2023/01/25 03:08:11;;;;;;;59.50;16.83;;;1.10;99.90;;;;;;5070156;28;20704;-56
2023/01/25 03:10:37;;;;;;;59.63;15.33;;;1.10;99.90;;;;;;5089177;28;20183;-56
2023/01/25 03:13:03;;;;;;;59.00;15.40;;;1.10;99.90;;;;;;5089424;28;20280;-56
2023/01/25 03:15:28;;;;;;;73.20;15.40;;;1.20;99.90;;;;;;5079701;28;20169;-55
2023/01/25 03:17:55;;;;;;;50.70;15.33;;;1.20;99.90;;;;;;5071074;28;20673;-55
2023/01/25 03:20:21;;;;;;;101.70;16.67;;;2.30;99.90;;;;;;5069736;28;20220;-55
2023/01/25 03:22:47;;;;;;;44.60;15.47;;;1.20;99.90;;;;;;5073591;28;20765;-56
2023/01/25 03:25:12;;;;;;;48.50;14.77;;;1.20;99.90;;;;;;5082498;28;20227;-56
2023/01/25 03:27:38;;;;;;;87.87;15.53;;;1.20;99.90;;;;;;5077545;28;20262;-56
2023/01/25 03:30:04;;;;;;;176.83;18.07;;;1.10;99.90;;;;;;5074751;28;20215;-56
2023/01/25 03:32:30;;;;;;;51.00;13.23;;;1.20;99.90;;;;;;5069924;28;20212;-56
2023/01/25 03:34:55;;;;;;;46.70;15.30;;;1.10;99.90;;;;;;5072813;28;20175;-55
2023/01/25 03:37:21;;;;;;;46.77;14.53;;;1.20;99.90;;;;;;5073940;28;20216;-56
2023/01/25 03:39:47;;;;;;;43.87;13.77;;;1.10;99.90;;;;;;5070469;28;20202;-56
2023/01/25 03:42:12;;;;;;;39.73;15.00;;;1.30;99.90;;;;;;5069593;28;20185;-55
2023/01/25 03:44:38;;;;;;;41.23;14.33;;;1.30;99.90;;;;;;5073585;28;20559;-56
2023/01/25 03:47:04;;;;;;;42.67;15.07;;;1.30;99.90;;;;;;5073733;28;20168;-56
2023/01/25 03:49:29;;;;;;;33.80;13.60;;;1.30;99.90;;;;;;5073393;28;20705;-56
2023/01/25 03:51:56;;;;;;;39.23;14.53;;;1.20;99.90;;;;;;5086023;28;20171;-56
2023/01/25 03:54:22;;;;;;;31.43;13.87;;;1.20;99.90;;;;;;5077005;28;20711;-56
2023/01/25 03:56:48;;;;;;;34.20;13.87;;;1.30;99.90;;;;;;5073013;28;20251;-56
2023/01/25 03:59:13;;;;;;;38.73;15.13;;;1.30;99.90;;;;;;5073275;28;20177;-56
2023/01/25 04:01:39;;;;;;;35.93;14.53;;;1.40;99.90;;;;;;5073259;28;20203;-56
2023/01/25 04:04:05;;;;;;;37.50;14.53;;;1.70;99.90;;;;;;5085220;28;20176;-56
2023/01/25 04:06:30;;;;;;;41.90;15.87;;;1.40;99.90;;;;;;5093112;28;20179;-56
2023/01/25 04:08:56;;;;;;;35.43;13.87;;;1.40;99.90;;;;;;5076537;28;20230;-56
2023/01/25 04:11:22;;;;;;;37.40;13.97;;;1.50;99.90;;;;;;5073098;28;20192;-56
2023/01/25 04:13:48;;;;;;;37.57;14.77;;;;;;;;;;5082202;28;20314;-56
2023/01/25 04:16:13;;;;;;;35.23;14.23;;;1.50;99.90;;;;;;5092779;28;20176;-56
2023/01/25 04:18:39;;;;;;;38.67;15.40;;;1.60;99.90;;;;;;5092924;28;20183;-56
2023/01/25 04:21:05;;;;;;;34.07;14.40;;;1.60;99.90;;;;;;5092922;28;20617;-56
2023/01/25 04:23:31;;;;;;;37.10;14.30;;;1.80;99.90;;;;;;5088486;28;20221;-57
2023/01/25 04:25:59;;;;;;;34.23;14.13;;;1.40;99.90;;;;;;5092704;28;20534;-57
2023/01/25 04:28:25;;;;;;;33.80;14.47;;;1.40;99.90;;;;;;5092734;28;20188;-56
2023/01/25 04:30:52;;;;;;;25.40;12.27;;;3.40;99.90;;;;;;5097264;22;22322;-56
2023/01/25 04:33:18;;;;;;;31.93;13.37;;;1.40;99.90;;;;;;5052236;22;20486;-56
2023/01/25 04:35:44;;;;;;;32.50;13.77;;;1.40;99.90;;;;;;5042129;28;20201;-57
2023/01/25 04:38:10;;;;;;;31.80;13.33;;;1.40;99.90;;;;;;5052291;28;21025;-56
2023/01/25 04:40:36;;;;;;;30.63;13.73;;;1.80;99.90;;;;;;5052569;28;20191;-57
2023/01/25 04:43:02;;;;;;;32.43;13.70;;;0.00;99.90;;;;;;5052366;28;20717;-56
2023/01/25 04:45:28;;;;;;;33.13;13.63;;;1.40;99.90;;;;;;5052205;28;20177;-56
2023/01/25 04:48:00;;;;;;;33.80;12.40;;;1.30;99.90;;;;;;5052226;28;20700;-56
2023/01/25 04:50:26;;;;;;;28.60;12.50;;;1.30;99.90;;;;;;5052588;28;20304;-56
2023/01/25 04:52:52;;;;;;;34.73;13.80;;;1.30;99.90;;;;;;5052099;28;20235;-56
2023/01/25 04:55:19;;;;;;;27.70;11.57;;;1.30;99.90;;;;;;5052459;28;20224;-56
2023/01/25 04:57:44;;;;;;;29.30;12.23;;;1.40;99.90;;;;;;5052070;28;20192;-57
2023/01/25 05:00:11;;;;;;;31.83;12.90;;;1.40;99.90;;;;;;5052193;28;20635;-56
2023/01/25 05:02:38;;;;;;;38.03;13.87;;;1.30;99.90;;;;;;5052011;28;20187;-56
2023/01/25 05:05:04;;;;;;;37.57;14.30;;;1.40;99.90;;;;;;5052297;28;20185;-56
2023/01/25 05:07:29;;;;;;;37.27;14.47;;;1.20;99.90;;;;;;5051605;28;20536;-56
2023/01/25 05:09:55;;;;;;;32.87;13.77;;;1.70;99.90;;;;;;5052042;28;20181;-56
2023/01/25 05:12:21;;;;;;;36.00;13.73;;;1.70;99.90;;;;;;5051705;28;20683;-56
2023/01/25 05:14:47;;;;;;;54.23;15.23;;;;;;;;;;5052184;28;20177;-57
2023/01/25 05:17:12;;;;;;;56.77;15.50;;;1.50;99.90;;;;;;5051718;28;20173;-56
2023/01/25 05:19:38;;;;;;;50.10;15.07;;;1.40;99.90;;;;;;5051836;28;20268;-57
2023/01/25 05:22:06;;;;;;;53.77;16.47;;;1.20;99.90;;;;;;5051703;28;20219;-57
2023/01/25 05:24:34;;;;;;;56.30;15.37;;;1.40;99.90;;;;;;5051956;28;20181;-57
2023/01/25 05:27:04;;;;;;;57.77;16.40;;;1.50;99.90;;;;;;5051475;28;20201;-57
2023/01/25 05:29:35;;;;;;;61.43;16.27;;;1.50;99.90;;;;;;5051393;28;20184;-57
2023/01/25 05:32:05;;;;;;;66.07;16.37;;;1.50;99.90;;;;;;5050638;28;20235;-57
2023/01/25 05:34:31;;;;;;;66.43;16.90;;;1.30;99.90;;;;;;5046170;28;20185;-57
2023/01/25 05:36:57;;;;;;;101.37;18.83;;;1.50;99.90;;;;;;5051776;28;20646;-57
2023/01/25 05:39:23;;;;;;;57.23;16.17;;;1.60;99.90;;;;;;5051295;28;20181;-57
2023/01/25 05:41:49;;;;;;;49.50;15.57;;;1.70;99.90;;;;;;5051545;28;20177;-57
2023/01/25 05:44:14;;;;;;;308.00;22.33;;;1.40;99.90;;;;;;5051423;28;20628;-57
2023/01/25 05:46:40;;;;;;;141.10;18.83;;;1.70;99.90;;;;;;5051068;28;20186;-57
2023/01/25 05:49:06;;;;;;;148.73;19.97;;;1.80;99.90;;;;;;5051352;28;20177;-57
2023/01/25 05:51:32;;;;;;;67.67;16.70;;;1.60;99.90;;;;;;5050962;28;20234;-57
2023/01/25 05:53:57;;;;;;;171.27;20.60;;;1.60;99.90;;;;;;5051079;28;20209;-57
2023/01/25 05:56:23;;;;;;;92.27;17.37;;;1.60;99.90;;;;;;5050571;28;20626;-56
2023/01/25 05:58:57;;;;;;;105.63;18.37;;;1.60;99.90;;;;;;5051121;28;20643;-58
2023/01/25 06:01:24;;;;;;;79.30;18.27;;;1.70;99.90;;;;;;5050776;28;20253;-56
2023/01/25 06:03:50;;;;;;;85.53;17.57;;;1.60;99.90;;;;;;5051083;28;20169;-56
2023/01/25 06:06:16;;;;;;;80.53;18.07;;;1.60;99.90;;;;;;5051146;28;20654;-56
2023/01/25 06:08:41;;;;;;;86.30;19.27;;;1.80;99.90;;;;;;5051001;28;20180;-57
2023/01/25 06:11:11;;;;;;;69.60;17.43;;;3.80;99.90;;;;;;5050753;28;20291;-56
2023/01/25 06:13:37;;;;;;;88.83;19.43;;;1.80;99.90;;;;;;5050733;28;20286;-56
2023/01/25 06:16:03;;;;;;;98.80;18.03;;;1.90;99.90;;;;;;5050871;28;20200;-56
2023/01/25 06:18:30;;;;;;;74.83;18.77;;;1.90;99.90;;;;;;5050560;28;20239;-56
2023/01/25 06:20:57;;;;;;;124.10;18.87;;;2.00;99.90;;;;;;5050731;28;20209;-58
2023/01/25 06:23:23;;;;;;;99.50;19.17;;;1.90;99.90;;;;;;5050476;28;20239;-56
2023/01/25 06:25:49;;;;;;;145.30;20.90;;;1.90;99.90;;;;;;5050657;28;20234;-56
2023/01/25 06:28:14;;;;;;;67.60;18.43;;;2.00;99.90;;;;;;5050512;28;20189;-56
2023/01/25 06:30:40;;;;;;;71.53;20.00;;;2.00;99.90;;;;;;5050647;28;20182;-56
2023/01/25 06:33:06;;;;;;;83.13;20.30;;;2.00;99.90;;;;;;5050399;28;20229;-56
2023/01/25 06:35:32;;;;;;;104.10;19.17;;;2.00;99.90;;;;;;5049288;28;20184;-56
2023/01/25 06:37:59;;;;;;;89.70;20.93;;;1.90;99.90;;;;;;5042258;28;20264;-56
2023/01/25 06:40:27;;;;;;;201.57;24.60;;;1.90;99.90;;;;;;5050858;28;20181;-56
2023/01/25 06:42:53;;;;;;;154.33;22.63;;;1.90;99.90;;;;;;5032437;28;20169;-56
2023/01/25 06:45:18;;;;;;;119.40;20.47;;;1.90;99.90;;;;;;5050271;28;20226;-56
2023/01/25 06:47:47;;;;;;;141.73;22.37;;;2.00;99.90;;;;;;5050384;28;20177;-56
2023/01/25 06:50:12;;;;;;;69.97;20.07;;;2.00;99.90;;;;;;5050056;28;20207;-56
2023/01/25 06:52:38;;;;;;;68.47;19.33;;;2.00;99.90;;;;;;5050415;28;20570;-57
2023/01/25 06:55:06;;;;;;;123.67;21.83;;;2.10;99.90;;;;;;5050141;28;20177;-57
2023/01/25 06:57:33;;;;;;;64.93;20.43;;;2.10;99.90;;;;;;5050240;28;20177;-57
2023/01/25 06:59:59;;;;;;;64.97;19.13;;;2.20;99.90;;;;;;5050248;28;20252;-57
2023/01/25 07:02:24;;;;;;;67.47;20.23;;;2.20;99.90;;;;;;5050131;28;20173;-57
2023/01/25 07:04:50;;;;;;;69.93;20.50;;;2.20;99.90;;;;;;5050369;28;20215;-57
2023/01/25 07:07:15;;;;;;;60.90;19.23;;;2.20;99.90;;;;;;5050398;28;20643;-57
2023/01/25 07:09:41;;;;;;;98.23;22.27;;;2.30;99.90;;;;;;5054423;28;20177;-57
2023/01/25 07:12:07;;;;;;;69.67;20.40;;;2.30;99.90;;;;;;5054230;28;20220;-57
2023/01/25 07:14:32;;;;;;;71.30;20.43;;;2.40;99.90;;;;;;5054151;28;20231;-57
2023/01/25 07:16:58;;;;;;;70.10;21.03;;;4.50;99.90;;;;;;5054030;28;20184;-56
2023/01/25 07:19:24;;;;;;;65.80;19.03;;;2.40;99.90;;;;;;5054085;28;20635;-57
2023/01/25 07:21:50;;;;;;;66.73;19.73;;;2.50;99.90;;;;;;5053913;28;20666;-56
2023/01/25 07:24:17;;;;;;;67.63;18.53;;;2.50;99.90;;;;;;5053803;28;20177;-56
2023/01/25 07:26:43;;;;;;;63.43;19.63;;;3.40;99.90;;;;;;5054016;28;20181;-58
2023/01/25 07:29:15;;;;;;;64.73;19.53;;;2.70;99.90;;;;;;5053545;28;20693;-56
2023/01/25 07:31:40;;;;;;;59.33;19.53;;;2.70;99.90;;;;;;5053797;28;20235;-56
2023/01/25 07:34:09;;;;;;;53.80;18.60;;;2.40;99.90;;;;;;5053807;28;20221;-57
2023/01/25 07:36:36;;;;;;;57.67;19.30;;;2.50;99.90;;;;;;5053451;28;20231;-56
2023/01/25 07:39:01;;;;;;;57.97;18.63;;;2.70;99.90;;;;;;5053642;28;20602;-57
2023/01/25 07:41:27;;;;;;;53.10;19.10;;;;;;;;;;5053624;28;20234;-56
2023/01/25 07:43:53;;;;;;;57.20;19.00;;;2.70;99.90;;;;;;5053542;28;20187;-56
2023/01/25 07:46:19;;;;;;;58.07;18.23;;;2.70;99.90;;;;;;5053784;28;20252;-56
2023/01/25 07:48:47;;;;;;;49.17;16.50;;;2.70;99.90;;;;;;5053294;28;20885;-56
2023/01/25 07:51:23;;;;;;;53.97;17.83;;;2.70;99.90;;;;;;5053663;28;20177;-57
2023/01/25 07:54:00;;;;;;;61.33;18.80;;;2.60;99.90;;;;;;5053109;28;20241;-56
2023/01/25 07:56:29;;;;;;;57.30;18.80;;;2.60;99.90;;;;;;5053557;28;20261;-57
2023/01/25 07:58:56;;;;;;;55.57;18.83;;;2.70;99.90;;;;;;5053067;28;20184;-57
2023/01/25 08:01:24;;;;;;;55.23;19.03;;;2.60;99.90;;;;;;5053073;28;20701;-56
2023/01/25 08:03:51;;;;;;;60.27;19.17;;;2.40;99.90;;;;;;5047099;28;20296;-56
2023/01/25 08:06:21;;;;;;;54.33;18.17;;;2.40;99.90;;;;;;5052912;28;20920;-57
2023/01/25 08:08:48;;;;;;;55.17;18.20;;;2.60;99.90;;;;;;5052295;28;20196;-56
2023/01/25 08:11:20;;;;;;;55.50;18.27;;;2.70;99.90;;;;;;5052835;28;20177;-55
2023/01/25 08:13:46;;;;;;;53.97;18.00;;;2.60;99.90;;;;;;5053626;28;20213;-55
2023/01/25 08:16:20;;;;;;;48.80;16.57;;;2.70;99.90;;;;;;5053208;28;20158;-55
2023/01/25 08:18:47;;;;;;;53.80;17.90;;;2.80;99.90;;;;;;5052663;28;20657;-55
2023/01/25 08:21:13;;;;;;;49.07;18.73;;;2.70;99.90;;;;;;5052063;28;20171;-58
2023/01/25 08:23:38;;;;;;;54.67;16.83;;;2.70;99.90;;;;;;5052436;28;20607;-55
2023/01/25 08:26:05;;;;;;;41.40;16.67;;;2.70;99.90;;;;;;5052959;28;20184;-55
2023/01/25 08:28:31;;;;;;;44.33;17.17;;;2.60;99.90;;;;;;5052723;28;20174;-55
2023/01/25 08:31:25;;;;;;;44.57;17.30;;;2.60;99.90;;;;;;5052912;28;20177;-54
2023/01/25 08:33:51;;;;;;;48.50;17.83;;;2.80;99.90;;;;;;5032309;28;20252;-55
2023/01/25 08:36:18;;;;;;;46.87;17.53;;;3.00;99.90;;;;;;5052447;28;20319;-55
2023/01/25 08:38:47;;;;;;;44.37;17.47;;;2.80;99.90;;;;;;5052740;28;20642;-56
2023/01/25 08:41:16;;;;;;;43.23;16.90;;;2.70;99.90;;;;;;5033822;28;20536;-55
2023/01/25 08:43:43;;;;;;;45.30;16.53;;;3.10;99.90;;;;;;5051467;28;20678;-55
2023/01/25 08:46:10;;;;;;;44.53;16.53;;;3.10;99.90;;;;;;5052324;28;20174;-54
2023/01/25 08:48:36;;;;;;;46.97;17.57;;;2.90;99.90;;;;;;5052563;28;20657;-56
2023/01/25 08:51:01;;;;;;;47.73;18.13;;;3.00;99.90;;;;;;5052540;28;20208;-55
2023/01/25 08:53:31;;;;;;;43.03;17.73;;;3.00;99.90;;;;;;5052063;28;20640;-56
2023/01/25 08:56:03;;;;;;;45.37;17.47;;;2.80;99.90;;;;;;5052359;28;20170;-56
2023/01/25 08:58:28;;;;;;;40.03;17.07;;;3.10;99.90;;;;;;5046184;28;20308;-56
2023/01/25 09:01:00;;;;;;;43.57;17.30;;;3.10;99.90;;;;;;5052350;28;20623;-56
2023/01/25 09:03:26;;;;;;;44.03;16.73;;;3.10;99.90;;;;;;5051955;28;20169;-56
2023/01/25 09:05:53;;;;;;;45.70;17.33;;;3.10;99.90;;;;;;5052176;28;20279;-57
2023/01/25 09:08:19;;;;;;;41.23;15.87;;;3.00;99.90;;;;;;5052204;28;20173;-56
2023/01/25 09:10:44;;;;;;;43.80;17.13;;;3.30;99.90;;;;;;5052085;28;20184;-57
2023/01/25 09:13:11;;;;;;;46.10;16.47;;;3.20;99.90;;;;;;5033628;28;20196;-57
2023/01/25 09:15:37;;;;;;;47.73;17.67;;;3.30;99.90;;;;;;5051907;28;20180;-57
2023/01/25 09:18:03;;;;;;;42.90;15.97;;;3.30;99.90;;;;;;5033751;28;20905;-57
2023/01/25 09:20:28;;;;;;;43.83;17.30;;;3.40;99.90;;;;;;5051815;28;20169;-57
2023/01/25 09:22:54;;;;;;;44.20;17.13;;;3.50;99.90;;;;;;5049485;28;20600;-57
2023/01/25 09:25:20;;;;;;;43.40;16.33;;;3.50;99.90;;;;;;5039847;28;20227;-57
2023/01/25 09:27:49;;;;;;;40.47;16.73;;;4.50;99.90;;;;;;5051486;28;20200;-57
2023/01/25 09:30:15;;;;;;;44.03;17.17;;;3.60;99.90;;;;;;5050472;28;20181;-57
2023/01/25 09:32:40;;;;;;;43.33;16.70;;;3.50;99.90;;;;;;5050547;28;20240;-56
2023/01/25 09:35:06;;;;;;;40.00;16.27;;;3.30;99.90;;;;;;5051448;28;20542;-56
2023/01/25 09:37:32;;;;;;;46.37;17.90;;;3.50;99.90;;;;;;5051584;28;20177;-56
2023/01/25 09:39:58;;;;;;;44.13;17.70;;;3.70;99.90;;;;;;5051227;28;20173;-55
2023/01/25 09:42:37;;;;;;;48.53;18.67;;;3.40;99.90;;;;;;5051595;28;20224;-55
2023/01/25 09:45:24;;;;;;;50.63;18.50;;;3.50;99.90;;;;;;5049784;28;20169;-57
2023/01/25 09:47:58;;;;;;;47.73;17.90;;;3.50;99.90;;;;;;5050905;28;20208;-56
2023/01/25 09:50:51;;;;;;;47.10;17.73;;;3.50;99.90;;;;;;5051562;28;20790;-56
2023/01/25 09:53:28;;;;;;;47.03;18.30;;;3.80;99.90;;;;;;5043111;28;20439;-56
2023/01/25 09:56:00;;;;;;;48.90;18.03;;;3.60;99.90;;;;;;5041126;28;20184;-56
2023/01/25 09:58:32;;;;;;;47.00;17.60;;;3.50;99.90;;;;;;5050566;28;20213;-56
2023/01/25 10:01:27;;;;;;;44.67;17.80;;;3.60;99.90;;;;;;5049571;28;20176;-56
2023/01/25 10:04:15;;;;;;;50.80;17.60;;;3.60;99.90;;;;;;5050047;28;20196;-56
2023/01/25 10:06:44;;;;;;;46.90;17.53;;;3.70;99.90;;;;;;5035134;28;20181;-56
2023/01/25 10:09:45;;;;;;;48.70;18.20;;;3.80;99.90;;;;;;5050627;28;20231;-56
2023/01/25 10:12:21;;;;;;;45.07;18.83;;;4.00;99.90;;;;;;5047799;28;20674;-56
2023/01/25 10:14:47;;;;;;;46.20;17.40;;;3.90;99.90;;;;;;5050716;28;20204;-56
2023/01/25 10:17:22;;;;;;;49.77;19.20;;;3.90;99.90;;;;;;5050927;28;20215;-56
2023/01/25 10:20:13;;;;;;;51.90;19.10;;;4.10;99.90;;;;;;5049522;28;20176;-56
2023/01/25 10:23:00;;;;;;;51.70;17.83;;;3.30;99.90;;;;;;5048799;28;20180;-56
2023/01/25 10:25:39;;;;;;;43.53;16.97;;;4.00;99.90;;;;;;5050081;28;20181;-56
2023/01/25 10:28:36;;;;;;;45.63;17.27;;;4.00;99.90;;;;;;5050548;28;20223;-55
2023/01/25 10:31:32;;;;;;;51.00;18.27;;;4.00;99.90;;;;;;5044173;28;20278;-56
2023/01/25 10:34:02;;;;;;;47.90;18.77;;;4.10;99.90;;;;;;5049708;28;20220;-55
2023/01/25 10:36:30;;;;;;;49.87;18.77;;;4.20;99.90;;;;;;5046911;28;20643;-56
2023/01/25 10:39:00;;;;;;;47.37;18.63;;;4.50;99.90;;;;;;5049052;28;20185;-56
2023/01/25 10:41:35;;;;;;;50.23;18.07;;;4.90;99.90;;;;;;5050602;28;20662;-57
2023/01/25 10:47:13;;;;;;;53.77;20.23;;;4.80;99.90;;;;;;5050651;28;20672;-56
2023/01/25 10:49:41;;;;;;;47.87;19.13;;;4.60;99.90;;;;;;5042973;28;20663;-56
2023/01/25 10:52:20;;;;;;;47.97;19.13;;;4.80;99.90;;;;;;5050242;28;20204;-58
2023/01/25 10:54:50;;;;;;;51.17;19.77;;;4.90;99.90;;;;;;5030681;28;20235;-56
2023/01/25 10:57:19;;;;;;;46.93;20.50;;;4.90;99.90;;;;;;5048009;28;20177;-58
2023/01/25 10:59:48;;;;;;;52.83;21.47;;;5.10;99.90;;;;;;5049867;28;20326;-56
2023/01/25 11:02:46;;;;;;;47.87;21.67;;;5.40;99.90;;;;;;5049158;28;20185;-56
2023/01/25 11:05:38;;;;;;;47.67;20.60;;;5.60;99.90;;;;;;5048819;28;20640;-56
2023/01/25 11:08:19;;;;;;;48.47;20.00;;;5.90;99.90;;;;;;5048369;28;20185;-56
2023/01/25 11:10:45;;;;;;;48.33;22.13;;;6.00;99.90;;;;;;5048806;28;20169;-56
2023/01/25 11:13:18;;;;;;;47.67;21.90;;;5.90;99.90;;;;;;5049087;28;20197;-56
2023/01/25 11:16:00;;;;;;;52.33;21.60;;;6.10;99.90;;;;;;5049249;28;20168;-56
2023/01/25 11:18:32;;;;;;;44.43;19.23;;;6.10;99.90;;;;;;5049196;28;20284;-57
2023/01/25 11:21:17;;;;;;;49.90;22.20;;;6.20;99.90;;;;;;5050216;28;20177;-56
2023/01/25 11:23:56;;;;;;;48.33;21.83;;;6.30;99.90;;;;;;5049677;28;20585;-56
2023/01/25 11:26:22;;;;;;;49.43;21.73;;;6.40;99.90;;;;;;5050101;28;20173;-56
2023/01/25 11:28:48;;;;;;;47.30;21.43;;;6.50;99.90;;;;;;5049847;28;20181;-57
2023/01/25 11:31:20;;;;;;;51.30;22.13;;;6.50;99.90;;;;;;5050171;28;20530;-56
2023/01/25 11:33:45;;;;;;;53.23;20.37;;;6.70;99.90;;;;;;5049795;28;20700;-56
2023/01/25 11:36:50;;;;;;;54.00;23.70;;;6.40;99.90;;;;;;5049827;28;20174;-57
2023/01/25 11:39:33;;;;;;;54.43;22.30;;;6.50;99.90;;;;;;5047131;28;20192;-57
2023/01/25 11:42:20;;;;;;;58.80;23.90;;;6.60;99.90;;;;;;5050349;28;20177;-57
2023/01/25 11:45:16;;;;;;;53.17;21.50;;;6.60;99.90;;;;;;5049973;28;20260;-57
2023/01/25 11:48:07;;;;;;;58.60;23.77;;;6.60;99.90;;;;;;5030292;28;20170;-57
2023/01/25 11:50:32;;;;;;;57.70;24.23;;;6.70;99.90;;;;;;5030044;28;20170;-57
2023/01/25 11:53:19;;;;;;;55.57;24.40;;;6.70;99.90;;;;;;5041380;28;20220;-57
2023/01/25 11:55:56;;;;;;;51.80;21.40;;;6.80;99.90;;;;;;5052291;28;20177;-57
2023/01/25 11:58:25;;;;;;;55.97;24.13;;;6.70;99.90;;;;;;5053738;28;20173;-57
2023/01/25 12:01:09;;;;;;;66.57;29.27;;;6.80;99.90;;;;;;5053616;28;20169;-57
2023/01/25 12:03:44;;;;;;;82.87;35.90;;;6.90;99.90;;;;;;5053143;28;20238;-57
2023/01/25 12:06:30;;;;;;;66.50;29.43;;;6.90;99.90;;;;;;5053516;28;20183;-57
2023/01/25 12:09:19;;;;;;;73.50;28.43;;;6.90;99.90;;;;;;5053401;28;20248;-58
2023/01/25 12:12:12;;;;;;;58.57;25.47;;;6.90;99.90;;;;;;5051837;28;20181;-58
2023/01/25 12:14:49;;;;;;;56.53;24.10;;;6.80;99.90;;;;;;5053376;28;20177;-58
2023/01/25 12:17:30;;;;;;;60.33;24.83;;;6.90;99.90;;;;;;5053093;28;20183;-57
2023/01/25 12:20:30;;;;;;;60.53;22.13;;;7.20;99.90;;;;;;5053181;28;20185;-57
2023/01/25 12:23:11;;;;;;;63.17;25.17;;;7.10;99.90;;;;;;5052891;28;20199;-57
2023/01/25 12:25:48;;;;;;;56.47;23.73;;;6.90;99.90;;;;;;5051295;28;20181;-57
2023/01/25 12:28:25;;;;;;;62.37;26.73;;;7.00;99.90;;;;;;5044612;28;20201;-58
2023/01/25 12:31:06;;;;;;;58.63;24.80;;;7.20;99.90;;;;;;5050627;28;20222;-57
2023/01/25 12:33:55;;;;;;;54.90;24.73;;;7.20;99.90;;;;;;5052224;28;20590;-57
2023/01/25 12:36:27;;;;;;;56.63;23.83;;;7.40;99.90;;;;;;5052548;28;20177;-57
2023/01/25 12:39:06;;;;;;;52.03;22.97;;;7.50;99.90;;;;;;5044708;28;20484;-57
2023/01/25 12:41:56;;;;;;;56.00;24.83;;;7.60;99.90;;;;;;5039469;28;20195;-57
2023/01/25 12:44:21;;;;;;;59.60;24.23;;;7.60;99.90;;;;;;5052744;28;20268;-57
2023/01/25 12:46:50;;;;;;;54.50;22.73;;;7.60;99.90;;;;;;5052649;28;20165;-57
2023/01/25 12:49:41;;;;;;;57.00;27.03;;;7.60;99.90;;;;;;5052722;28;20664;-57
2023/01/25 12:52:19;;;;;;;56.93;25.13;;;7.80;99.90;;;;;;5052534;28;20173;-57
2023/01/25 12:54:47;;;;;;;62.33;26.57;;;7.60;99.90;;;;;;5052391;28;20211;-57
2023/01/25 12:57:43;;;;;;;64.27;25.13;;;7.80;99.90;;;;;;5052390;28;20177;-57